Time;durP1;ratioP1;P1;durP2;ratioP2;P2;SDS_P1;SDS_P2;PMS_P1;PMS_P2;Temp;Humidity;BMP_temperature;BMP_pressure;BME280_temperature;BME280_humidity;BME280_pressure;Samples;Min_cycle;Max_cycle;Signal;HPM_P1;HPM_P2
2023/01/11 00:01:22;;;;;;;10.82;4.30;;;10.50;99.60;;;;;;5052231;28;20036;-76
2023/01/11 00:03:48;;;;;;;8.23;3.38;;;10.60;99.50;;;;;;5054927;28;20108;-75
2023/01/11 00:06:14;;;;;;;8.35;3.33;;;10.50;99.90;;;;;;5054347;28;20171;-75
2023/01/11 00:08:39;;;;;;;10.48;3.92;;;10.50;99.90;;;;;;5046878;28;20017;-76
2023/01/11 00:11:13;;;;;;;7.57;3.58;;;10.60;99.90;;;;;;5059440;28;20029;-76
2023/01/11 00:13:39;;;;;;;7.70;3.42;;;10.50;99.90;;;;;;5045488;28;20021;-77
2023/01/11 00:16:06;;;;;;;6.95;3.60;;;10.60;99.90;;;;;;5054479;28;20032;-77
2023/01/11 00:18:31;;;;;;;5.97;3.15;;;10.60;99.90;;;;;;5037515;28;20017;-76
2023/01/11 00:20:59;;;;;;;10.10;4.45;;;10.70;99.90;;;;;;5026164;28;20039;-76
2023/01/11 00:23:25;;;;;;;7.63;3.70;;;10.60;99.90;;;;;;5042537;28;20020;-75
2023/01/11 00:25:50;;;;;;;6.28;3.17;;;10.70;99.90;;;;;;5042741;28;20030;-76
2023/01/11 00:28:16;;;;;;;7.18;3.42;;;10.70;99.90;;;;;;5037911;28;20040;-76
2023/01/11 00:30:41;;;;;;;7.18;3.25;;;10.70;99.90;;;;;;5052780;28;20444;-75
2023/01/11 00:33:10;;;;;;;7.60;3.55;;;10.80;99.60;;;;;;5035658;28;20025;-76
2023/01/11 00:35:35;;;;;;;6.15;2.75;;;10.80;99.90;;;;;;5063807;28;20394;-77
2023/01/11 00:38:01;;;;;;;9.43;3.80;;;10.80;99.60;;;;;;5046620;28;20025;-76
2023/01/11 00:40:26;;;;;;;9.30;4.15;;;10.80;99.90;;;;;;5043608;28;20037;-76
2023/01/11 00:48:21;;;;;;;8.15;4.05;;;10.90;99.90;;;;;;5039896;28;20182;-76
2023/01/11 00:50:46;;;;;;;6.90;3.47;;;10.90;99.90;;;;;;5052279;28;20507;-76
2023/01/11 00:53:13;;;;;;;9.45;4.30;;;10.90;99.80;;;;;;5037338;28;20025;-76
2023/01/11 00:55:38;;;;;;;6.95;4.03;;;10.90;99.90;;;;;;5060069;28;20016;-76
2023/01/11 00:58:04;;;;;;;6.35;3.35;;;10.90;99.90;;;;;;5057296;28;20029;-76
2023/01/11 01:00:30;;;;;;;5.93;3.38;;;10.90;99.90;;;;;;5053933;28;20029;-76
2023/01/11 01:02:56;;;;;;;8.50;4.13;;;10.90;99.90;;;;;;5010899;28;20087;-77
2023/01/11 01:05:21;;;;;;;7.32;3.30;;;11.00;99.90;;;;;;5047314;28;20045;-77
2023/01/11 01:07:47;;;;;;;6.50;2.90;;;11.00;99.70;;;;;;5039656;28;20116;-76
2023/01/11 01:10:15;;;;;;;6.55;3.85;;;11.10;99.50;;;;;;5044200;28;20028;-76
2023/01/11 01:15:25;;;;;;;5.45;2.47;;;11.00;99.80;;;;;;5044512;28;20115;-76
2023/01/11 01:17:54;;;;;;;5.00;3.30;;;11.10;99.30;;;;;;5043211;28;20108;-76
2023/01/11 01:20:21;;;;;;;10.00;3.57;;;11.10;99.90;;;;;;5045354;28;20060;-75
2023/01/11 01:22:47;;;;;;;8.05;3.78;;;11.00;99.90;;;;;;5059408;28;20025;-74
2023/01/11 01:25:13;;;;;;;5.63;2.70;;;11.00;99.90;;;;;;5052571;28;20100;-75
2023/01/11 01:27:39;;;;;;;6.22;2.85;;;11.00;99.90;;;;;;5058132;28;20136;-75
2023/01/11 01:30:06;;;;;;;7.18;2.72;;;11.00;99.90;;;;;;5043026;28;20032;-75
2023/01/11 01:32:31;;;;;;;5.95;2.42;;;11.10;99.70;;;;;;5052056;28;20423;-77
2023/01/11 01:34:58;;;;;;;7.95;4.00;;;11.10;99.90;;;;;;5052948;28;20135;-76
2023/01/11 01:37:24;;;;;;;7.50;2.65;;;11.10;99.90;;;;;;5050131;28;20105;-74
2023/01/11 01:39:49;;;;;;;7.63;2.55;;;11.20;99.90;;;;;;5041302;28;20036;-75
2023/01/11 01:42:17;;;;;;;4.95;2.80;;;11.20;99.40;;;;;;5060395;28;20039;-77
2023/01/11 01:45:17;;;;;;;5.53;3.13;;;11.20;99.50;;;;;;5056875;28;20056;-76
2023/01/11 01:47:51;;;;;;;4.53;2.13;;;11.20;99.50;;;;;;5062662;28;20139;-76
2023/01/11 01:50:21;;;;;;;6.05;2.25;;;11.20;99.90;;;;;;5041429;28;20526;-76
2023/01/11 01:52:50;;;;;;;7.05;3.72;;;11.10;99.90;;;;;;5056423;28;20020;-76
2023/01/11 01:55:24;;;;;;;6.18;2.70;;;11.20;99.90;;;;;;5030923;28;20044;-76
2023/01/11 01:57:51;;;;;;;6.28;2.97;;;11.20;99.90;;;;;;5041556;28;20052;-76
2023/01/11 02:00:17;;;;;;;5.65;2.75;;;11.20;99.90;;;;;;5033134;28;20025;-75
2023/01/11 02:02:43;;;;;;;8.60;3.17;;;11.20;99.90;;;;;;5048930;28;20110;-75
2023/01/11 02:05:11;;;;;;;4.28;2.10;;;11.20;99.90;;;;;;5039566;28;20025;-75
2023/01/11 02:07:39;;;;;;;6.75;2.92;;;11.20;99.90;;;;;;5059855;28;20475;-76
2023/01/11 02:10:10;;;;;;;5.60;2.58;;;11.20;99.90;;;;;;5031166;28;20028;-75
2023/01/11 02:12:45;;;;;;;3.35;1.38;;;11.20;99.90;;;;;;5064203;28;20032;-76
2023/01/11 02:15:11;;;;;;;4.25;2.15;;;11.30;99.90;;;;;;5046794;28;20021;-75
2023/01/11 02:17:37;;;;;;;4.05;1.98;;;11.20;99.90;;;;;;5051375;28;20035;-74
2023/01/11 02:20:17;;;;;;;4.88;2.17;;;11.30;99.90;;;;;;5056278;28;20025;-75
2023/01/11 02:23:02;;;;;;;;;;;11.30;99.90;;;;;;5047214;28;20071;-77
2023/01/11 02:25:43;;;;;;;3.45;1.50;;;11.30;99.90;;;;;;5050396;28;20363;-76
2023/01/11 02:28:28;;;;;;;2.88;1.80;;;11.30;99.90;;;;;;5045521;28;20402;-75
2023/01/11 02:31:25;;;;;;;5.03;2.88;;;11.30;99.90;;;;;;5030792;28;20112;-77
2023/01/11 02:34:09;;;;;;;6.13;3.38;;;11.30;99.90;;;;;;5055132;28;20033;-76
2023/01/11 02:36:59;;;;;;;6.07;3.45;;;11.30;99.90;;;;;;5047851;28;20499;-76
2023/01/11 02:39:29;;;;;;;3.88;2.70;;;11.30;99.90;;;;;;5046330;28;20036;-76
2023/01/11 02:45:08;;;;;;;4.97;1.73;;;11.40;99.90;;;;;;5053426;28;20406;-75
2023/01/11 02:48:08;;;;;;;3.08;1.83;;;11.40;99.90;;;;;;5040691;28;20024;-75
2023/01/11 02:50:37;;;;;;;2.63;2.03;;;11.40;99.90;;;;;;5030901;28;20160;-75
2023/01/11 02:53:11;;;;;;;2.75;1.70;;;11.50;99.90;;;;;;5052277;28;20394;-75
2023/01/11 02:55:43;;;;;;;4.13;2.58;;;11.40;99.90;;;;;;5058272;28;20040;-77
2023/01/11 02:58:11;;;;;;;3.65;2.22;;;11.40;99.90;;;;;;5049379;28;20070;-76
2023/01/11 03:00:39;;;;;;;2.55;1.50;;;11.50;99.90;;;;;;5049736;28;20028;-76
2023/01/11 03:03:29;;;;;;;2.95;2.30;;;11.50;99.90;;;;;;5039320;28;20039;-76
2023/01/11 03:06:16;;;;;;;6.77;2.97;;;11.50;99.90;;;;;;5046569;28;20032;-76
2023/01/11 03:08:44;;;;;;;3.47;2.50;;;11.50;99.90;;;;;;5042390;28;20089;-75
2023/01/11 03:14:27;;;;;;;6.93;1.90;;;11.50;99.90;;;;;;5034101;28;20087;-76
2023/01/11 03:17:30;;;;;;;2.72;1.75;;;11.60;99.90;;;;;;5046773;28;20060;-76
2023/01/11 03:20:11;;;;;;;2.85;1.42;;;11.60;99.90;;;;;;5052479;28;20021;-73
2023/01/11 03:23:06;;;;;;;4.45;2.40;;;11.60;99.90;;;;;;5018748;28;20472;-75
2023/01/11 03:26:03;;;;;;;3.40;1.88;;;11.60;99.90;;;;;;5041055;28;20040;-75
2023/01/11 03:28:33;;;;;;;6.55;3.65;;;11.60;99.90;;;;;;5039370;28;20128;-76
2023/01/11 03:31:14;;;;;;;5.70;3.33;;;11.60;99.90;;;;;;5045612;28;20552;-75
2023/01/11 03:33:56;;;;;;;4.80;3.28;;;11.70;99.90;;;;;;5049368;28;20017;-76
2023/01/11 03:36:36;;;;;;;5.40;3.85;;;11.70;99.90;;;;;;5051221;28;20368;-76
2023/01/11 03:39:19;;;;;;;4.85;3.55;;;11.70;99.90;;;;;;5041508;28;20026;-76
2023/01/11 03:41:47;;;;;;;5.93;3.05;;;11.80;99.90;;;;;;5044685;28;20167;-77
2023/01/11 03:44:15;;;;;;;3.90;2.58;;;11.70;99.90;;;;;;5047643;28;20036;-77
2023/01/11 03:46:48;;;;;;;7.05;3.42;;;11.70;99.90;;;;;;5051509;28;20016;-77
2023/01/11 03:49:21;;;;;;;5.20;2.70;;;11.80;99.90;;;;;;5046254;28;20078;-77
2023/01/11 03:51:49;;;;;;;8.18;3.80;;;11.80;99.90;;;;;;5051712;28;20108;-77
2023/01/11 03:54:20;;;;;;;4.72;2.83;;;11.80;99.90;;;;;;5029569;28;20222;-77
2023/01/11 03:57:06;;;;;;;6.75;4.32;;;11.80;99.90;;;;;;5041860;28;20018;-76
2023/01/11 03:59:33;;;;;;;6.20;4.40;;;11.80;99.90;;;;;;5049993;28;20028;-75
2023/01/11 04:01:59;;;;;;;6.25;4.25;;;11.90;99.90;;;;;;5040681;28;20125;-75
2023/01/11 04:04:25;;;;;;;6.57;4.50;;;11.90;99.90;;;;;;5028118;28;20646;-76
2023/01/11 04:06:51;;;;;;;6.97;3.58;;;11.90;99.90;;;;;;5036791;28;20082;-76
2023/01/11 04:09:17;;;;;;;6.63;4.25;;;12.00;99.90;;;;;;5040935;28;20021;-76
2023/01/11 04:11:43;;;;;;;5.22;3.60;;;12.00;99.90;;;;;;5048545;28;20029;-77
2023/01/11 04:14:09;;;;;;;7.78;5.30;;;12.00;99.90;;;;;;5048719;28;20032;-76
2023/01/11 04:16:35;;;;;;;6.28;4.13;;;12.00;99.90;;;;;;5055169;28;20229;-75
2023/01/11 04:19:01;;;;;;;7.32;4.85;;;12.00;99.90;;;;;;5057890;28;20067;-75
2023/01/11 04:21:27;;;;;;;6.60;5.03;;;11.90;99.90;;;;;;5025856;28;20112;-76
2023/01/11 04:23:53;;;;;;;7.15;4.25;;;11.90;99.90;;;;;;5047854;28;20120;-76
2023/01/11 04:26:18;;;;;;;7.85;4.65;;;11.90;99.90;;;;;;5039398;28;20059;-76
2023/01/11 04:28:44;;;;;;;6.65;3.83;;;12.00;99.90;;;;;;5038133;28;20026;-77
2023/01/11 04:31:10;;;;;;;7.45;4.90;;;12.00;99.90;;;;;;5035740;28;20025;-77
2023/01/11 04:33:36;;;;;;;6.72;5.03;;;12.10;99.90;;;;;;5053133;28;20021;-77
2023/01/11 04:36:07;;;;;;;6.18;2.70;;;12.10;99.90;;;;;;5032706;28;20425;-76
2023/01/11 04:38:32;;;;;;;8.75;4.95;;;12.10;99.90;;;;;;5042861;28;20025;-76
2023/01/11 04:43:44;;;;;;;6.88;4.75;;;12.20;99.90;;;;;;5058134;28;20082;-77
2023/01/11 04:46:09;;;;;;;9.70;6.57;;;12.20;99.90;;;;;;5038388;28;20029;-79
2023/01/11 04:48:38;;;;;;;10.73;6.78;;;12.10;99.90;;;;;;5039728;28;20040;-75
2023/01/11 04:51:05;;;;;;;5.95;3.70;;;12.10;99.90;;;;;;5041701;28;20090;-76
2023/01/11 04:53:30;;;;;;;11.23;7.43;;;12.20;99.90;;;;;;5049227;28;20480;-77
2023/01/11 04:56:01;;;;;;;12.77;8.30;;;12.20;99.90;;;;;;5034921;28;20028;-78
2023/01/11 04:58:34;;;;;;;10.05;7.22;;;12.20;99.90;;;;;;5042231;28;20030;-76
2023/01/11 05:01:06;;;;;;;11.10;8.20;;;12.30;99.90;;;;;;5034985;28;20044;-76
2023/01/11 05:03:31;;;;;;;10.88;7.50;;;12.30;99.90;;;;;;5060621;28;20095;-76
2023/01/11 05:05:58;;;;;;;14.25;9.40;;;12.20;99.90;;;;;;5046261;28;20116;-78
2023/01/11 05:08:25;;;;;;;12.25;9.27;;;12.20;99.90;;;;;;5059195;28;20024;-76
2023/01/11 05:10:56;;;;;;;14.07;9.82;;;12.20;99.90;;;;;;5064013;28;20021;-76
2023/01/11 05:13:44;;;;;;;11.23;7.60;;;12.20;99.90;;;;;;5055758;28;20102;-78
2023/01/11 05:16:18;;;;;;;14.20;9.63;;;12.30;99.90;;;;;;5032206;28;20414;-78
2023/01/11 05:18:47;;;;;;;14.23;10.20;;;12.30;99.90;;;;;;5049292;28;20030;-78
2023/01/11 05:21:16;;;;;;;17.55;9.70;;;12.30;99.90;;;;;;5029093;28;20037;-77
2023/01/11 05:23:42;;;;;;;11.82;8.15;;;12.30;99.90;;;;;;5050057;28;20033;-77
2023/01/11 05:26:14;;;;;;;13.95;9.40;;;12.30;99.90;;;;;;5041798;28;20094;-78
2023/01/11 05:28:40;;;;;;;19.75;10.38;;;12.40;99.90;;;;;;5044857;28;20048;-78
2023/01/11 05:31:06;;;;;;;15.25;9.63;;;12.30;99.90;;;;;;5042001;28;20404;-78
2023/01/11 05:33:32;;;;;;;12.18;8.43;;;12.30;99.90;;;;;;5047947;28;20028;-77
2023/01/11 05:36:06;;;;;;;14.80;9.50;;;12.30;99.90;;;;;;5055441;28;20020;-78
2023/01/11 05:38:32;;;;;;;14.05;9.43;;;12.40;99.90;;;;;;5036228;28;20538;-76
2023/01/11 05:40:59;;;;;;;18.23;10.13;;;12.30;99.90;;;;;;5069060;28;20040;-78
2023/01/11 05:43:26;;;;;;;17.80;10.52;;;12.30;99.90;;;;;;5039649;28;20064;-78
2023/01/11 05:45:52;;;;;;;14.00;8.55;;;12.40;99.90;;;;;;5052033;28;20020;-78
2023/01/11 05:48:18;;;;;;;18.23;11.05;;;12.40;99.90;;;;;;5040669;28;20388;-78
2023/01/11 05:50:49;;;;;;;12.70;7.82;;;12.40;99.90;;;;;;5041497;28;20498;-78
2023/01/11 05:53:15;;;;;;;26.15;10.90;;;12.40;99.90;;;;;;5031637;28;20025;-78
2023/01/11 05:55:54;;;;;;;23.48;11.60;;;12.40;99.90;;;;;;5060289;28;20501;-78
2023/01/11 05:58:21;;;;;;;19.20;9.73;;;12.40;99.90;;;;;;5041467;28;20033;-78
2023/01/11 06:00:49;;;;;;;11.60;7.03;;;12.40;99.90;;;;;;5054536;28;20506;-79
2023/01/11 06:03:14;;;;;;;23.40;8.60;;;12.40;99.90;;;;;;5061208;28;20025;-77
2023/01/11 06:05:41;;;;;;;17.65;8.50;;;12.40;99.90;;;;;;5056946;28;20348;-78
2023/01/11 06:08:07;;;;;;;27.45;14.38;;;12.30;99.90;;;;;;5050432;28;20021;-77
2023/01/11 06:10:33;;;;;;;24.25;10.63;;;12.40;99.90;;;;;;5051946;28;20029;-77
2023/01/11 06:15:42;;;;;;;21.33;9.35;;;12.30;99.90;;;;;;5041977;28;20041;-78
2023/01/11 06:18:08;;;;;;;23.83;7.95;;;12.40;99.90;;;;;;5036324;28;20021;-77
2023/01/11 06:20:35;;;;;;;23.15;9.30;;;12.40;99.90;;;;;;5041978;28;20037;-77
2023/01/11 06:23:00;;;;;;;15.02;6.53;;;12.30;99.90;;;;;;5033758;28;20168;-77
2023/01/11 06:25:27;;;;;;;22.40;8.48;;;12.30;99.90;;;;;;5039589;28;20096;-77
2023/01/11 06:27:53;;;;;;;21.13;8.18;;;12.30;99.90;;;;;;5037382;28;20045;-78
2023/01/11 06:30:24;;;;;;;19.45;7.68;;;12.30;99.90;;;;;;5045224;28;20123;-78
2023/01/11 06:32:53;;;;;;;19.27;7.32;;;12.30;99.90;;;;;;5051449;28;20017;-77
2023/01/11 06:35:19;;;;;;;23.92;8.55;;;12.30;99.90;;;;;;5021450;28;20085;-77
2023/01/11 06:37:44;;;;;;;23.70;8.05;;;12.20;99.90;;;;;;5054045;28;20100;-78
2023/01/11 06:40:10;;;;;;;22.52;8.30;;;12.10;99.90;;;;;;5034817;28;20501;-76
2023/01/11 06:42:36;;;;;;;17.42;4.47;;;12.20;99.90;;;;;;5056213;28;20066;-76
2023/01/11 06:45:02;;;;;;;17.40;3.50;;;12.10;99.90;;;;;;5036776;28;20100;-77
2023/01/11 06:47:28;;;;;;;16.80;3.83;;;12.10;99.90;;;;;;5048435;28;20017;-77
2023/01/11 06:49:53;;;;;;;17.02;4.35;;;12.10;99.90;;;;;;5033576;28;20021;-76
2023/01/11 06:52:19;;;;;;;27.17;5.63;;;12.00;99.90;;;;;;5054762;28;20040;-77
2023/01/11 06:54:46;;;;;;;16.73;3.70;;;12.00;99.90;;;;;;5053831;28;20028;-77
2023/01/11 06:57:11;;;;;;;24.17;4.80;;;12.00;99.90;;;;;;5042392;28;20026;-75
2023/01/11 06:59:38;;;;;;;22.88;4.03;;;11.90;99.90;;;;;;5038092;28;20066;-77
2023/01/11 07:02:05;;;;;;;26.33;5.13;;;11.90;99.90;;;;;;5051015;28;20036;-77
2023/01/11 07:04:30;;;;;;;17.35;3.80;;;11.80;99.90;;;;;;5027862;28;20017;-78
2023/01/11 07:06:56;;;;;;;21.38;4.47;;;11.80;99.90;;;;;;5033923;28;20387;-78
2023/01/11 07:09:22;;;;;;;17.25;3.67;;;11.80;99.90;;;;;;5055513;28;20035;-78
2023/01/11 07:11:47;;;;;;;18.38;3.67;;;11.80;99.90;;;;;;5047915;28;20029;-79
2023/01/11 07:14:18;;;;;;;19.70;4.22;;;11.80;99.90;;;;;;5051457;28;20025;-77
2023/01/11 07:16:47;;;;;;;19.10;2.85;;;11.70;99.90;;;;;;5049052;28;20021;-79
2023/01/11 07:19:12;;;;;;;12.88;3.28;;;11.80;99.90;;;;;;5052143;28;20103;-81
2023/01/11 07:21:38;;;;;;;23.63;3.85;;;11.80;99.70;;;;;;5033240;28;20123;-79
2023/01/11 07:24:04;;;;;;;20.10;4.10;;;11.80;99.30;;;;;;5043112;28;20029;-78
2023/01/11 07:26:31;;;;;;;26.38;6.60;;;11.80;99.30;;;;;;5030181;28;20046;-78
2023/01/11 07:28:57;;;;;;;17.88;3.78;;;11.70;99.40;;;;;;5053496;28;20033;-79
2023/01/11 07:31:23;;;;;;;18.83;3.67;;;11.70;99.30;;;;;;5027886;28;20036;-80
2023/01/11 07:33:49;;;;;;;19.38;4.13;;;11.60;99.40;;;;;;5056553;28;20044;-79
2023/01/11 07:36:14;;;;;;;16.20;3.78;;;11.60;99.40;;;;;;5032543;28;20018;-79
2023/01/11 07:38:40;;;;;;;17.77;3.35;;;11.60;99.50;;;;;;5056652;28;20023;-79
2023/01/11 07:43:10;;;;;;;22.27;3.78;;;11.60;99.30;;;;;;5030935;28;20033;-79
2023/01/11 07:43:51;;;;;;;17.23;3.88;;;11.50;99.40;;;;;;5032870;28;20120;-81
2023/01/11 07:46:17;;;;;;;22.45;4.32;;;11.50;99.40;;;;;;5053756;28;20093;-78
2023/01/11 07:48:42;;;;;;;19.58;4.20;;;11.50;99.20;;;;;;5040046;28;20032;-80
2023/01/11 07:51:08;;;;;;;19.95;3.85;;;11.40;99.20;;;;;;5030242;28;20029;-81
2023/01/11 07:53:34;;;;;;;15.88;3.85;;;11.50;99.00;;;;;;5046483;28;20096;-80
2023/01/11 07:55:59;;;;;;;19.50;4.13;;;11.50;99.00;;;;;;5037022;28;20029;-78
2023/01/11 07:58:25;;;;;;;26.77;7.78;;;11.50;99.00;;;;;;5043362;28;20020;-79
2023/01/11 08:00:50;;;;;;;18.33;3.88;;;11.50;99.00;;;;;;5038696;28;20082;-78
2023/01/11 08:03:16;;;;;;;26.40;4.45;;;11.50;98.80;;;;;;5046667;28;20131;-80
2023/01/11 08:05:41;;;;;;;17.45;3.88;;;11.50;98.80;;;;;;5044079;28;20034;-80
2023/01/11 08:08:08;;;;;;;16.70;3.20;;;11.60;98.60;;;;;;5043149;28;20475;-82
2023/01/11 08:10:34;;;;;;;18.73;2.90;;;11.50;98.60;;;;;;5059601;28;20039;-80
2023/01/11 08:15:44;;;;;;;24.20;3.75;;;11.50;98.50;;;;;;5057036;28;20048;-81
2023/01/11 08:18:11;;;;;;;27.08;5.47;;;11.50;98.50;;;;;;5056067;28;20026;-80
2023/01/11 08:20:37;;;;;;;22.60;3.50;;;11.40;98.40;;;;;;5070434;28;20024;-80
2023/01/11 08:23:05;;;;;;;23.65;4.65;;;11.50;98.30;;;;;;5060884;28;20029;-80
2023/01/11 08:25:31;;;;;;;20.33;4.60;;;11.40;98.30;;;;;;5027711;28;20840;-80
2023/01/11 08:28:00;;;;;;;22.42;4.68;;;11.40;98.30;;;;;;5044175;28;20523;-80
2023/01/11 08:30:25;;;;;;;14.52;4.20;;;11.40;98.30;;;;;;5059758;28;20033;-79
2023/01/11 08:32:52;;;;;;;18.90;4.28;;;11.30;98.20;;;;;;5038882;28;20040;-79
2023/01/11 08:35:20;;;;;;;24.65;3.83;;;11.40;98.30;;;;;;5044707;28;20018;-80
2023/01/11 08:37:46;;;;;;;28.02;4.82;;;11.40;98.30;;;;;;5049321;28;20028;-80
2023/01/11 08:40:12;;;;;;;19.75;3.85;;;11.30;98.10;;;;;;5046121;28;20029;-80
2023/01/11 08:42:38;;;;;;;20.98;4.07;;;11.30;98.10;;;;;;5047569;28;20136;-80
2023/01/11 08:45:03;;;;;;;24.55;3.92;;;11.30;98.20;;;;;;5045922;28;20463;-79
2023/01/11 08:47:29;;;;;;;21.25;3.95;;;11.20;98.10;;;;;;5049115;28;20025;-79
2023/01/11 08:49:55;;;;;;;18.42;3.80;;;11.20;98.20;;;;;;5045221;28;20036;-79
2023/01/11 08:52:22;;;;;;;13.20;2.70;;;11.20;98.20;;;;;;5044564;28;20105;-80
2023/01/11 08:54:48;;;;;;;20.65;4.63;;;11.10;98.10;;;;;;5054309;28;20056;-81
2023/01/11 08:57:14;;;;;;;24.60;3.90;;;11.10;98.10;;;;;;5046213;28;20025;-80
2023/01/11 08:59:40;;;;;;;22.08;4.78;;;11.10;98.00;;;;;;5051769;28;20021;-80
2023/01/11 09:02:08;;;;;;;23.77;4.95;;;11.10;98.00;;;;;;5049523;28;20114;-79
2023/01/11 09:04:33;;;;;;;24.92;3.92;;;11.10;97.90;;;;;;5031232;28;20021;-79
2023/01/11 09:07:00;;;;;;;15.65;3.65;;;11.10;97.90;;;;;;5050098;28;20024;-79
2023/01/11 09:09:26;;;;;;;26.33;4.93;;;11.10;97.80;;;;;;5014463;28;20053;-78
2023/01/11 09:11:59;;;;;;;26.52;5.15;;;11.10;97.80;;;;;;5042910;28;20045;-78
2023/01/11 09:14:29;;;;;;;20.88;4.03;;;11.10;97.60;;;;;;5022358;28;20380;-77
2023/01/11 09:16:55;;;;;;;20.50;3.53;;;11.10;97.60;;;;;;5051231;28;20098;-79
2023/01/11 09:19:24;;;;;;;27.45;5.15;;;11.10;97.60;;;;;;5051154;28;20025;-78
2023/01/11 09:21:50;;;;;;;24.73;4.40;;;11.10;97.60;;;;;;5044690;28;20036;-76
2023/01/11 09:24:16;;;;;;;24.90;4.40;;;11.00;97.50;;;;;;5033833;28;20031;-78
2023/01/11 09:26:42;;;;;;;21.23;4.43;;;11.00;97.60;;;;;;5034454;28;20045;-78
2023/01/11 09:29:08;;;;;;;22.73;3.60;;;10.90;97.70;;;;;;5034908;28;20037;-78
2023/01/11 09:31:34;;;;;;;20.85;4.45;;;10.90;98.10;;;;;;5017241;28;20108;-78
2023/01/11 09:34:00;;;;;;;26.00;4.55;;;10.80;97.80;;;;;;5050662;28;20551;-77
2023/01/11 09:36:26;;;;;;;21.88;3.70;;;10.90;97.80;;;;;;5047699;28;20022;-79
2023/01/11 09:38:56;;;;;;;21.27;4.07;;;10.80;97.70;;;;;;5072498;28;20020;-78
2023/01/11 09:42:00;;;;;;;30.10;4.15;;;10.80;97.80;;;;;;5033890;28;20044;-78
2023/01/11 09:44:28;;;;;;;20.13;5.75;;;10.80;97.80;;;;;;5062547;28;20024;-78
2023/01/11 09:47:19;;;;;;;20.77;4.45;;;10.80;97.60;;;;;;5041982;28;20092;-77
2023/01/11 09:49:54;;;;;;;25.42;4.25;;;10.80;97.60;;;;;;5047959;28;20037;-76
2023/01/11 09:52:27;;;;;;;28.33;4.20;;;10.80;97.40;;;;;;5024315;28;20097;-77
2023/01/11 09:54:54;;;;;;;32.33;5.40;;;10.80;97.40;;;;;;5042613;28;20077;-78
2023/01/11 09:57:49;;;;;;;26.30;5.72;;;10.80;97.50;;;;;;5064765;28;20021;-78
2023/01/11 10:00:15;;;;;;;22.42;4.18;;;10.90;97.70;;;;;;5042665;28;20052;-77
2023/01/11 10:02:52;;;;;;;26.13;4.28;;;11.10;97.50;;;;;;5059577;28;20107;-79
2023/01/11 10:05:54;;;;;;;26.67;4.70;;;11.30;97.00;;;;;;5052787;28;20077;-78
2023/01/11 10:08:39;;;;;;;19.60;4.85;;;11.40;96.80;;;;;;5028354;28;20029;-77
2023/01/11 10:11:18;;;;;;;18.25;4.93;;;12.00;95.70;;;;;;5036098;28;20391;-78
2023/01/11 10:14:20;;;;;;;21.15;4.50;;;12.70;94.70;;;;;;5052949;28;20021;-78
2023/01/11 10:16:50;;;;;;;21.23;4.28;;;13.40;93.40;;;;;;5032180;28;20786;-77
2023/01/11 10:19:22;;;;;;;23.20;4.07;;;13.90;92.10;;;;;;5031230;28;20387;-77
2023/01/11 10:21:57;;;;;;;17.17;3.50;;;14.30;90.10;;;;;;5018484;28;20895;-76
2023/01/11 10:24:22;;;;;;;21.42;4.00;;;14.50;90.00;;;;;;5048084;28;20087;-77
2023/01/11 10:26:51;;;;;;;17.67;3.70;;;14.70;88.30;;;;;;5054732;28;20125;-77
2023/01/11 10:29:29;;;;;;;21.58;4.72;;;14.90;89.00;;;;;;5056764;28;20028;-78
2023/01/11 10:37:48;;;;;;;16.98;3.30;;;15.60;85.10;;;;;;5042346;28;20122;-78
2023/01/11 10:41:13;;;;;;;20.88;3.40;;;15.60;83.60;;;;;;5049692;28;20025;-78
2023/01/11 10:43:48;;;;;;;19.70;4.00;;;15.60;84.20;;;;;;5024437;28;20028;-78
2023/01/11 10:46:17;;;;;;;18.33;3.65;;;15.50;83.10;;;;;;5031899;28;20022;-78
2023/01/11 10:48:44;;;;;;;22.50;5.07;;;15.50;84.00;;;;;;5025842;28;20463;-76
2023/01/11 10:51:28;;;;;;;28.02;5.10;;;15.60;84.40;;;;;;5046319;28;20033;-77
2023/01/11 10:54:18;;;;;;;18.90;3.97;;;15.50;85.50;;;;;;5035009;28;20029;-76
2023/01/11 10:56:48;;;;;;;;;;;15.20;85.10;;;;;;5016393;28;20033;-77
2023/01/11 10:59:48;;;;;;;21.77;4.10;;;14.80;85.40;;;;;;5036473;28;19963;-78
2023/01/11 11:02:25;;;;;;;21.13;3.92;;;14.60;86.90;;;;;;5046298;28;20048;-78
2023/01/11 11:05:07;;;;;;;20.35;4.15;;;14.50;88.40;;;;;;5044657;28;20016;-77
2023/01/11 11:07:48;;;;;;;19.92;3.80;;;14.20;87.20;;;;;;5049796;28;20036;-77
2023/01/11 11:10:20;;;;;;;;;;;14.00;88.20;;;;;;5047216;28;20021;-74
2023/01/11 11:13:14;;;;;;;15.05;3.38;;;13.90;87.80;;;;;;5031062;28;19917;-77
2023/01/11 11:16:12;;;;;;;17.52;2.95;;;13.60;89.50;;;;;;5042826;28;20026;-78
2023/01/11 11:18:38;;;;;;;26.15;4.25;;;13.50;90.40;;;;;;5033677;28;20040;-77
2023/01/11 11:21:15;;;;;;;17.75;3.67;;;13.60;90.00;;;;;;5042727;28;20035;-76
2023/01/11 11:23:41;;;;;;;16.27;3.45;;;13.90;90.00;;;;;;5029791;28;20018;-77
2023/01/11 11:26:08;;;;;;;16.60;2.90;;;13.90;88.00;;;;;;5056844;28;20048;-77
2023/01/11 11:28:34;;;;;;;21.95;4.82;;;14.20;87.60;;;;;;5035011;28;20029;-76
2023/01/11 11:31:06;;;;;;;19.77;4.70;;;14.30;85.60;;;;;;5053391;28;20024;-76
2023/01/11 11:33:34;;;;;;;20.23;4.05;;;14.10;85.70;;;;;;5036958;28;20021;-77
2023/01/11 11:36:05;;;;;;;15.45;3.30;;;13.90;84.90;;;;;;5015713;28;20087;-76
2023/01/11 11:38:34;;;;;;;20.17;4.50;;;13.80;87.90;;;;;;5032137;28;20115;-77
2023/01/11 11:41:16;;;;;;;17.77;4.47;;;14.00;86.30;;;;;;5053291;28;20044;-77
2023/01/11 11:43:44;;;;;;;20.55;3.70;;;14.20;85.60;;;;;;5048953;28;20033;-77
2023/01/11 11:46:13;;;;;;;16.25;3.58;;;14.20;85.10;;;;;;5048044;28;20401;-77
2023/01/11 11:48:40;;;;;;;17.70;3.42;;;14.10;85.40;;;;;;5016278;28;20033;-77
2023/01/11 11:51:14;;;;;;;16.80;3.97;;;13.80;86.20;;;;;;5045763;28;20029;-77
2023/01/11 11:53:54;;;;;;;18.15;3.40;;;13.60;87.70;;;;;;5046889;28;20488;-75
2023/01/11 11:56:36;;;;;;;17.27;3.53;;;13.50;86.30;;;;;;5037212;28;20037;-76
2023/01/11 11:59:14;;;;;;;13.65;3.08;;;13.40;86.60;;;;;;5041040;28;20025;-77
2023/01/11 12:01:45;;;;;;;17.80;3.28;;;13.30;87.20;;;;;;5040170;28;20064;-77
2023/01/11 12:04:21;;;;;;;13.55;3.30;;;13.30;87.20;;;;;;5024194;28;20035;-76
2023/01/11 12:07:19;;;;;;;21.17;4.88;;;13.30;89.60;;;;;;5053826;28;20024;-77
2023/01/11 12:09:55;;;;;;;22.25;3.88;;;13.30;86.90;;;;;;5032128;28;20041;-77
2023/01/11 12:12:21;;;;;;;18.30;3.58;;;13.50;86.80;;;;;;5054892;28;20120;-76
2023/01/11 12:15:15;;;;;;;13.77;2.85;;;13.70;86.80;;;;;;5027950;28;20104;-77
2023/01/11 12:17:41;;;;;;;24.45;4.22;;;13.80;86.40;;;;;;5052500;28;20063;-77
2023/01/11 12:20:33;;;;;;;19.05;3.60;;;13.90;85.10;;;;;;5043798;28;20099;-76
2023/01/11 12:23:23;;;;;;;20.70;3.20;;;13.80;86.20;;;;;;5035064;28;20071;-78
2023/01/11 12:26:17;;;;;;;14.70;4.15;;;13.70;86.30;;;;;;5038056;28;20032;-77
2023/01/11 12:28:52;;;;;;;17.80;4.40;;;13.60;86.40;;;;;;5053633;28;20087;-78
2023/01/11 12:31:27;;;;;;;14.48;3.40;;;13.40;86.00;;;;;;5021560;28;20079;-77
2023/01/11 12:34:13;;;;;;;20.92;4.32;;;13.20;87.30;;;;;;5021167;28;20108;-76
2023/01/11 12:36:51;;;;;;;13.65;2.83;;;12.90;86.90;;;;;;5022894;28;20037;-77
2023/01/11 12:39:42;;;;;;;18.67;3.78;;;12.70;88.20;;;;;;5029189;28;20025;-76
2023/01/11 12:42:30;;;;;;;17.02;3.60;;;12.60;88.50;;;;;;5037707;28;20041;-77
2023/01/11 12:45:34;;;;;;;17.98;3.53;;;12.50;90.60;;;;;;5030800;28;20029;-76
2023/01/11 12:48:15;;;;;;;23.02;3.55;;;12.40;90.00;;;;;;5028411;28;20615;-78
2023/01/11 12:50:41;;;;;;;21.75;3.47;;;12.30;89.10;;;;;;5050530;28;20029;-76
2023/01/11 12:53:44;;;;;;;15.00;3.90;;;12.20;88.50;;;;;;5031691;28;20037;-76
2023/01/11 12:56:25;;;;;;;14.90;3.30;;;12.20;90.20;;;;;;5031462;28;20036;-77
2023/01/11 12:59:06;;;;;;;21.85;4.45;;;12.50;88.10;;;;;;5031899;28;20085;-76
2023/01/11 13:01:59;;;;;;;18.23;3.80;;;12.60;87.50;;;;;;5037797;28;20037;-74
2023/01/11 13:04:34;;;;;;;22.25;4.13;;;13.00;85.80;;;;;;5041869;28;20396;-77
2023/01/11 13:07:23;;;;;;;14.90;3.72;;;13.30;84.20;;;;;;5040214;28;20037;-76
2023/01/11 13:09:48;;;;;;;17.23;3.60;;;13.50;83.40;;;;;;5052033;28;20025;-75
2023/01/11 13:12:33;;;;;;;21.60;4.38;;;13.50;82.80;;;;;;5043174;28;20047;-77
2023/01/11 13:15:05;;;;;;;19.60;4.15;;;13.30;82.60;;;;;;5031488;28;20435;-76
2023/01/11 13:17:43;;;;;;;24.40;4.80;;;12.90;83.40;;;;;;5034145;28;20041;-76
2023/01/11 13:20:38;;;;;;;18.73;4.45;;;12.70;84.80;;;;;;5055080;28;20471;-76
2023/01/11 13:23:13;;;;;;;20.30;4.00;;;12.50;86.10;;;;;;5018059;28;20071;-77
2023/01/11 13:25:44;;;;;;;20.08;3.92;;;12.40;89.00;;;;;;5053181;28;20095;-76
2023/01/11 13:28:37;;;;;;;25.63;4.75;;;12.30;88.10;;;;;;5033434;28;20029;-77
2023/01/11 13:31:06;;;;;;;20.25;5.35;;;12.30;87.70;;;;;;5065864;28;20242;-76
2023/01/11 13:33:34;;;;;;;22.48;4.80;;;12.40;87.60;;;;;;5047807;28;20429;-76